sensor_id;sensor_type;location;lat;lon;timestamp;noise_LAeq;noise_LA_min;noise_LA_max;noise_LA01;noise_LA95
67294;Laerm;58160;51.434;5.978;2022-08-03T00:00:05;31.40;30.18;32.60;;
67294;Laerm;58160;51.434;5.978;2022-08-03T00:00:16;39.03;30.44;47.89;;
67294;Laerm;58160;51.434;5.978;2022-08-03T00:00:26;33.21;30.49;45.67;;
67294;Laerm;58160;51.434;5.978;2022-08-03T00:00:39;34.41;31.30;44.68;;
67294;Laerm;58160;51.434;5.978;2022-08-03T00:00:50;34.82;31.86;38.99;;
67294;Laerm;58160;51.434;5.978;2022-08-03T00:01:00;34.40;31.67;43.91;;
67294;Laerm;58160;51.434;5.978;2022-08-03T00:01:11;33.54;30.73;46.42;;
67294;Laerm;58160;51.434;5.978;2022-08-03T00:01:24;33.08;31.07;46.56;;
67294;Laerm;58160;51.434;5.978;2022-08-03T00:01:35;34.31;30.74;47.87;;
67294;Laerm;58160;51.434;5.978;2022-08-03T00:01:46;33.30;30.85;45.04;;
67294;Laerm;58160;51.434;5.978;2022-08-03T00:01:56;32.47;30.55;38.99;;
67294;Laerm;58160;51.434;5.978;2022-08-03T00:02:06;34.11;30.71;51.91;;
67294;Laerm;58160;51.434;5.978;2022-08-03T00:02:16;31.91;30.40;40.01;;
67294;Laerm;58160;51.434;5.978;2022-08-03T00:02:27;31.89;30.40;35.66;;
67294;Laerm;58160;51.434;5.978;2022-08-03T00:02:37;32.34;30.58;40.36;;
67294;Laerm;58160;51.434;5.978;2022-08-03T00:02:47;31.83;30.63;34.40;;
67294;Laerm;58160;51.434;5.978;2022-08-03T00:02:58;31.66;30.44;33.31;;
67294;Laerm;58160;51.434;5.978;2022-08-03T00:03:08;31.57;29.77;32.94;;
67294;Laerm;58160;51.434;5.978;2022-08-03T00:03:18;31.48;30.18;32.88;;
67294;Laerm;58160;51.434;5.978;2022-08-03T00:03:29;31.44;30.12;32.97;;
67294;Laerm;58160;51.434;5.978;2022-08-03T00:03:39;31.42;30.38;33.58;;
67294;Laerm;58160;51.434;5.978;2022-08-03T00:03:49;31.29;30.09;32.97;;
67294;Laerm;58160;51.434;5.978;2022-08-03T00:03:59;32.41;30.06;43.82;;
67294;Laerm;58160;51.434;5.978;2022-08-03T00:04:10;31.57;30.15;36.28;;
67294;Laerm;58160;51.434;5.978;2022-08-03T00:04:20;31.84;30.10;42.55;;
67294;Laerm;58160;51.434;5.978;2022-08-03T00:04:31;31.70;30.36;39.06;;
67294;Laerm;58160;51.434;5.978;2022-08-03T00:04:41;31.70;30.24;34.14;;
67294;Laerm;58160;51.434;5.978;2022-08-03T00:04:51;33.10;30.54;44.73;;
67294;Laerm;58160;51.434;5.978;2022-08-03T00:05:01;33.62;30.58;51.63;;
67294;Laerm;58160;51.434;5.978;2022-08-03T00:05:12;32.28;30.94;33.70;;
67294;Laerm;58160;51.434;5.978;2022-08-03T00:05:22;32.78;30.72;42.00;;
67294;Laerm;58160;51.434;5.978;2022-08-03T00:05:32;32.99;30.67;44.94;;
67294;Laerm;58160;51.434;5.978;2022-08-03T00:05:43;32.17;30.35;40.95;;
67294;Laerm;58160;51.434;5.978;2022-08-03T00:05:53;31.70;30.52;35.77;;
67294;Laerm;58160;51.434;5.978;2022-08-03T00:06:03;32.12;30.55;34.36;;
67294;Laerm;58160;51.434;5.978;2022-08-03T00:06:13;32.85;30.59;35.55;;
67294;Laerm;58160;51.434;5.978;2022-08-03T00:06:24;33.27;31.38;39.54;;
67294;Laerm;58160;51.434;5.978;2022-08-03T00:06:34;34.21;31.38;37.23;;
67294;Laerm;58160;51.434;5.978;2022-08-03T00:06:45;35.13;32.04;45.52;;
67294;Laerm;58160;51.434;5.978;2022-08-03T00:06:55;33.92;31.94;36.62;;
67294;Laerm;58160;51.434;5.978;2022-08-03T00:07:05;33.59;31.31;42.37;;
67294;Laerm;58160;51.434;5.978;2022-08-03T00:07:16;32.84;31.06;35.43;;
67294;Laerm;58160;51.434;5.978;2022-08-03T00:07:26;32.62;31.25;34.45;;
67294;Laerm;58160;51.434;5.978;2022-08-03T00:07:36;32.60;30.93;39.40;;
67294;Laerm;58160;51.434;5.978;2022-08-03T00:07:47;34.15;30.89;50.34;;
67294;Laerm;58160;51.434;5.978;2022-08-03T00:07:58;32.45;30.76;38.33;;
67294;Laerm;58160;51.434;5.978;2022-08-03T00:08:08;34.09;30.78;50.05;;
67294;Laerm;58160;51.434;5.978;2022-08-03T00:08:19;32.52;30.74;42.68;;
67294;Laerm;58160;51.434;5.978;2022-08-03T00:08:29;32.21;30.77;37.25;;
67294;Laerm;58160;51.434;5.978;2022-08-03T00:08:39;32.06;30.43;41.95;;
67294;Laerm;58160;51.434;5.978;2022-08-03T00:08:50;31.73;30.60;33.00;;
67294;Laerm;58160;51.434;5.978;2022-08-03T00:09:00;31.91;30.57;35.39;;
67294;Laerm;58160;51.434;5.978;2022-08-03T00:09:10;31.99;30.77;37.70;;
67294;Laerm;58160;51.434;5.978;2022-08-03T00:09:21;31.80;30.42;33.81;;
67294;Laerm;58160;51.434;5.978;2022-08-03T00:09:31;31.68;30.34;33.54;;
67294;Laerm;58160;51.434;5.978;2022-08-03T00:09:41;31.43;30.14;32.73;;
67294;Laerm;58160;51.434;5.978;2022-08-03T00:09:51;31.54;30.10;33.74;;
67294;Laerm;58160;51.434;5.978;2022-08-03T00:10:02;31.39;30.08;33.45;;
67294;Laerm;58160;51.434;5.978;2022-08-03T00:10:12;31.16;30.07;32.74;;
67294;Laerm;58160;51.434;5.978;2022-08-03T00:10:23;31.35;30.00;35.78;;
67294;Laerm;58160;51.434;5.978;2022-08-03T00:10:33;31.08;29.48;32.38;;
67294;Laerm;58160;51.434;5.978;2022-08-03T00:10:43;31.09;29.86;33.39;;
67294;Laerm;58160;51.434;5.978;2022-08-03T00:10:54;31.08;30.02;32.17;;
67294;Laerm;58160;51.434;5.978;2022-08-03T00:11:04;31.04;29.90;32.94;;
67294;Laerm;58160;51.434;5.978;2022-08-03T00:11:16;31.28;29.97;33.42;;
67294;Laerm;58160;51.434;5.978;2022-08-03T00:11:26;31.07;29.93;32.17;;
67294;Laerm;58160;51.434;5.978;2022-08-03T00:11:36;31.39;29.96;32.99;;
67294;Laerm;58160;51.434;5.978;2022-08-03T00:11:47;31.64;30.15;33.17;;
67294;Laerm;58160;51.434;5.978;2022-08-03T00:11:57;31.75;30.15;33.30;;
67294;Laerm;58160;51.434;5.978;2022-08-03T00:12:07;31.29;29.91;34.98;;
67294;Laerm;58160;51.434;5.978;2022-08-03T00:12:18;31.33;30.07;33.44;;
67294;Laerm;58160;51.434;5.978;2022-08-03T00:12:28;31.40;29.79;33.89;;
67294;Laerm;58160;51.434;5.978;2022-08-03T00:12:38;31.29;29.76;33.13;;
67294;Laerm;58160;51.434;5.978;2022-08-03T00:12:49;31.39;29.94;36.67;;
67294;Laerm;58160;51.434;5.978;2022-08-03T00:12:59;31.43;29.69;33.23;;
67294;Laerm;58160;51.434;5.978;2022-08-03T00:13:10;31.17;30.04;33.32;;
67294;Laerm;58160;51.434;5.978;2022-08-03T00:13:22;31.43;30.07;33.07;;
67294;Laerm;58160;51.434;5.978;2022-08-03T00:13:32;31.05;29.60;32.23;;
67294;Laerm;58160;51.434;5.978;2022-08-03T00:13:42;31.04;29.87;33.06;;
67294;Laerm;58160;51.434;5.978;2022-08-03T00:13:53;31.18;30.00;38.54;;
67294;Laerm;58160;51.434;5.978;2022-08-03T00:14:06;31.37;29.79;38.71;;
67294;Laerm;58160;51.434;5.978;2022-08-03T00:14:16;31.20;29.79;34.57;;
67294;Laerm;58160;51.434;5.978;2022-08-03T00:14:27;30.94;29.89;32.20;;
67294;Laerm;58160;51.434;5.978;2022-08-03T00:14:37;30.94;29.70;32.82;;
67294;Laerm;58160;51.434;5.978;2022-08-03T00:14:47;31.15;29.83;32.78;;
67294;Laerm;58160;51.434;5.978;2022-08-03T00:14:58;31.34;30.01;32.79;;
67294;Laerm;58160;51.434;5.978;2022-08-03T00:15:08;31.11;29.85;32.39;;
67294;Laerm;58160;51.434;5.978;2022-08-03T00:15:18;31.01;29.78;32.38;;
67294;Laerm;58160;51.434;5.978;2022-08-03T00:15:29;30.97;29.51;33.65;;
67294;Laerm;58160;51.434;5.978;2022-08-03T00:15:39;30.97;29.71;32.95;;
67294;Laerm;58160;51.434;5.978;2022-08-03T00:15:50;30.97;29.51;31.98;;
67294;Laerm;58160;51.434;5.978;2022-08-03T00:16:00;30.91;29.79;32.03;;
67294;Laerm;58160;51.434;5.978;2022-08-03T00:16:10;30.98;29.67;32.43;;
67294;Laerm;58160;51.434;5.978;2022-08-03T00:16:22;31.02;29.61;40.06;;
67294;Laerm;58160;51.434;5.978;2022-08-03T00:16:34;30.99;29.46;33.61;;
67294;Laerm;58160;51.434;5.978;2022-08-03T00:16:44;30.98;29.35;32.44;;
67294;Laerm;58160;51.434;5.978;2022-08-03T00:16:54;31.01;29.75;32.14;;
67294;Laerm;58160;51.434;5.978;2022-08-03T00:17:05;31.02;29.70;35.33;;
67294;Laerm;58160;51.434;5.978;2022-08-03T00:17:15;30.98;29.71;32.75;;
67294;Laerm;58160;51.434;5.978;2022-08-03T00:17:25;31.04;29.84;32.83;;
67294;Laerm;58160;51.434;5.978;2022-08-03T00:17:35;31.03;29.98;32.28;;
67294;Laerm;58160;51.434;5.978;2022-08-03T00:17:46;30.94;29.98;32.37;;
67294;Laerm;58160;51.434;5.978;2022-08-03T00:17:56;31.04;29.74;32.64;;
67294;Laerm;58160;51.434;5.978;2022-08-03T00:18:06;31.04;29.68;33.73;;
67294;Laerm;58160;51.434;5.978;2022-08-03T00:18:16;31.14;29.85;32.38;;
67294;Laerm;58160;51.434;5.978;2022-08-03T00:18:27;31.10;29.85;32.52;;
67294;Laerm;58160;51.434;5.978;2022-08-03T00:18:37;31.10;29.89;32.16;;
67294;Laerm;58160;51.434;5.978;2022-08-03T00:18:48;31.12;30.11;32.60;;
67294;Laerm;58160;51.434;5.978;2022-08-03T00:18:58;31.15;29.96;32.27;;
67294;Laerm;58160;51.434;5.978;2022-08-03T00:19:08;31.04;30.01;32.51;;
67294;Laerm;58160;51.434;5.978;2022-08-03T00:19:19;31.16;30.04;32.26;;
67294;Laerm;58160;51.434;5.978;2022-08-03T00:19:29;31.27;29.68;34.81;;
67294;Laerm;58160;51.434;5.978;2022-08-03T00:19:40;31.60;30.16;33.00;;
67294;Laerm;58160;51.434;5.978;2022-08-03T00:19:50;32.14;29.96;34.84;;
67294;Laerm;58160;51.434;5.978;2022-08-03T00:20:00;32.99;31.33;36.63;;
67294;Laerm;58160;51.434;5.978;2022-08-03T00:20:11;33.18;31.04;34.95;;
67294;Laerm;58160;51.434;5.978;2022-08-03T00:20:21;34.11;31.39;38.76;;
67294;Laerm;58160;51.434;5.978;2022-08-03T00:20:31;34.79;31.67;38.96;;
67294;Laerm;58160;51.434;5.978;2022-08-03T00:20:41;36.24;33.05;48.17;;
67294;Laerm;58160;51.434;5.978;2022-08-03T00:20:52;34.46;32.15;36.97;;
67294;Laerm;58160;51.434;5.978;2022-08-03T00:21:03;33.70;31.37;36.17;;
67294;Laerm;58160;51.434;5.978;2022-08-03T00:21:13;32.63;30.39;34.83;;
67294;Laerm;58160;51.434;5.978;2022-08-03T00:21:23;32.02;30.70;33.69;;
67294;Laerm;58160;51.434;5.978;2022-08-03T00:21:34;31.82;30.27;33.64;;
67294;Laerm;58160;51.434;5.978;2022-08-03T00:21:44;31.53;30.26;32.96;;
67294;Laerm;58160;51.434;5.978;2022-08-03T00:21:54;31.80;30.02;39.03;;
67294;Laerm;58160;51.434;5.978;2022-08-03T00:22:04;32.01;29.81;41.93;;
67294;Laerm;58160;51.434;5.978;2022-08-03T00:22:15;31.49;29.99;38.65;;
67294;Laerm;58160;51.434;5.978;2022-08-03T00:22:25;31.66;30.03;42.62;;
67294;Laerm;58160;51.434;5.978;2022-08-03T00:22:35;31.52;30.20;33.86;;
67294;Laerm;58160;51.434;5.978;2022-08-03T00:22:46;31.76;29.72;33.70;;
67294;Laerm;58160;51.434;5.978;2022-08-03T00:22:56;31.84;30.15;33.85;;
67294;Laerm;58160;51.434;5.978;2022-08-03T00:23:06;31.93;30.73;33.71;;
67294;Laerm;58160;51.434;5.978;2022-08-03T00:23:16;32.90;30.97;35.12;;
67294;Laerm;58160;51.434;5.978;2022-08-03T00:23:27;34.01;32.32;36.94;;
67294;Laerm;58160;51.434;5.978;2022-08-03T00:23:37;33.58;31.33;36.68;;
67294;Laerm;58160;51.434;5.978;2022-08-03T00:23:47;39.39;34.66;43.80;;
67294;Laerm;58160;51.434;5.978;2022-08-03T00:23:58;47.99;41.07;53.18;;
67294;Laerm;58160;51.434;5.978;2022-08-03T00:24:08;51.87;48.52;54.78;;
67294;Laerm;58160;51.434;5.978;2022-08-03T00:24:18;52.28;49.02;58.18;;
67294;Laerm;58160;51.434;5.978;2022-08-03T00:24:29;48.00;43.49;51.60;;
67294;Laerm;58160;51.434;5.978;2022-08-03T00:24:40;44.38;38.79;47.50;;
67294;Laerm;58160;51.434;5.978;2022-08-03T00:24:50;38.66;35.45;43.03;;
67294;Laerm;58160;51.434;5.978;2022-08-03T00:25:00;34.41;31.82;38.75;;
67294;Laerm;58160;51.434;5.978;2022-08-03T00:25:11;32.23;30.36;33.68;;
67294;Laerm;58160;51.434;5.978;2022-08-03T00:25:21;31.63;30.30;32.92;;
67294;Laerm;58160;51.434;5.978;2022-08-03T00:25:32;31.54;30.37;32.83;;
67294;Laerm;58160;51.434;5.978;2022-08-03T00:25:43;31.27;29.98;32.55;;
67294;Laerm;58160;51.434;5.978;2022-08-03T00:25:53;31.35;30.12;32.36;;
67294;Laerm;58160;51.434;5.978;2022-08-03T00:26:03;31.88;30.02;34.54;;
67294;Laerm;58160;51.434;5.978;2022-08-03T00:26:13;32.96;30.85;35.99;;
67294;Laerm;58160;51.434;5.978;2022-08-03T00:26:24;34.29;31.64;36.21;;
67294;Laerm;58160;51.434;5.978;2022-08-03T00:26:34;31.99;30.13;33.49;;
67294;Laerm;58160;51.434;5.978;2022-08-03T00:26:44;31.47;30.18;38.01;;
67294;Laerm;58160;51.434;5.978;2022-08-03T00:26:55;31.36;30.05;32.55;;
67294;Laerm;58160;51.434;5.978;2022-08-03T00:27:05;31.53;30.24;33.28;;
67294;Laerm;58160;51.434;5.978;2022-08-03T00:27:15;31.44;30.21;33.23;;
67294;Laerm;58160;51.434;5.978;2022-08-03T00:27:26;31.44;30.05;33.15;;
67294;Laerm;58160;51.434;5.978;2022-08-03T00:27:36;31.42;30.15;32.46;;
67294;Laerm;58160;51.434;5.978;2022-08-03T00:27:46;31.41;30.26;32.60;;
67294;Laerm;58160;51.434;5.978;2022-08-03T00:27:56;31.52;30.29;34.40;;
67294;Laerm;58160;51.434;5.978;2022-08-03T00:28:07;32.74;30.10;38.15;;
67294;Laerm;58160;51.434;5.978;2022-08-03T00:28:18;31.56;30.19;33.07;;
67294;Laerm;58160;51.434;5.978;2022-08-03T00:28:28;31.41;30.20;32.58;;
67294;Laerm;58160;51.434;5.978;2022-08-03T00:28:38;31.52;30.31;33.03;;
67294;Laerm;58160;51.434;5.978;2022-08-03T00:28:49;31.49;30.38;32.59;;
67294;Laerm;58160;51.434;5.978;2022-08-03T00:28:59;31.40;30.06;32.69;;
67294;Laerm;58160;51.434;5.978;2022-08-03T00:29:09;31.46;30.23;33.08;;
67294;Laerm;58160;51.434;5.978;2022-08-03T00:29:20;31.44;30.31;32.70;;
67294;Laerm;58160;51.434;5.978;2022-08-03T00:29:30;31.36;30.16;32.56;;
67294;Laerm;58160;51.434;5.978;2022-08-03T00:29:41;31.32;30.03;34.08;;
67294;Laerm;58160;51.434;5.978;2022-08-03T00:29:51;31.33;30.18;32.80;;
67294;Laerm;58160;51.434;5.978;2022-08-03T00:30:02;31.38;29.84;35.08;;
67294;Laerm;58160;51.434;5.978;2022-08-03T00:30:12;31.36;30.04;33.08;;
67294;Laerm;58160;51.434;5.978;2022-08-03T00:30:23;31.44;30.31;33.38;;
67294;Laerm;58160;51.434;5.978;2022-08-03T00:30:33;31.50;30.18;34.86;;
67294;Laerm;58160;51.434;5.978;2022-08-03T00:30:43;33.49;30.37;41.52;;
67294;Laerm;58160;51.434;5.978;2022-08-03T00:30:54;31.59;30.30;37.07;;
67294;Laerm;58160;51.434;5.978;2022-08-03T00:31:07;35.38;30.23;46.65;;
67294;Laerm;58160;51.434;5.978;2022-08-03T00:31:17;32.55;30.45;40.10;;
67294;Laerm;58160;51.434;5.978;2022-08-03T00:31:27;31.90;29.96;40.91;;
67294;Laerm;58160;51.434;5.978;2022-08-03T00:31:38;31.83;30.41;35.95;;
67294;Laerm;58160;51.434;5.978;2022-08-03T00:31:48;32.73;31.32;35.34;;
67294;Laerm;58160;51.434;5.978;2022-08-03T00:31:58;43.75;32.67;52.83;;
67294;Laerm;58160;51.434;5.978;2022-08-03T00:32:09;47.37;32.68;55.56;;
67294;Laerm;58160;51.434;5.978;2022-08-03T00:32:19;33.01;31.36;34.81;;
67294;Laerm;58160;51.434;5.978;2022-08-03T00:32:29;32.37;30.79;36.09;;
67294;Laerm;58160;51.434;5.978;2022-08-03T00:32:40;33.08;30.72;36.62;;
67294;Laerm;58160;51.434;5.978;2022-08-03T00:32:50;32.68;30.46;42.47;;
67294;Laerm;58160;51.434;5.978;2022-08-03T00:33:01;31.85;30.41;36.61;;
67294;Laerm;58160;51.434;5.978;2022-08-03T00:33:11;31.63;30.18;33.08;;
67294;Laerm;58160;51.434;5.978;2022-08-03T00:33:21;31.66;30.38;33.00;;
67294;Laerm;58160;51.434;5.978;2022-08-03T00:33:31;31.91;30.51;33.96;;
67294;Laerm;58160;51.434;5.978;2022-08-03T00:33:42;31.74;30.60;33.34;;
67294;Laerm;58160;51.434;5.978;2022-08-03T00:33:52;32.01;30.87;33.58;;
67294;Laerm;58160;51.434;5.978;2022-08-03T00:34:03;31.67;30.34;32.92;;
67294;Laerm;58160;51.434;5.978;2022-08-03T00:34:13;31.76;30.31;33.06;;
67294;Laerm;58160;51.434;5.978;2022-08-03T00:34:23;31.63;30.07;32.76;;
67294;Laerm;58160;51.434;5.978;2022-08-03T00:34:33;31.87;30.70;33.19;;
67294;Laerm;58160;51.434;5.978;2022-08-03T00:34:44;31.90;30.36;33.08;;
67294;Laerm;58160;51.434;5.978;2022-08-03T00:34:54;31.84;30.31;33.36;;
67294;Laerm;58160;51.434;5.978;2022-08-03T00:35:05;31.94;30.50;33.28;;
67294;Laerm;58160;51.434;5.978;2022-08-03T00:35:15;31.91;30.61;34.19;;
67294;Laerm;58160;51.434;5.978;2022-08-03T00:35:26;32.02;30.69;33.40;;
67294;Laerm;58160;51.434;5.978;2022-08-03T00:35:36;32.06;30.29;33.58;;
67294;Laerm;58160;51.434;5.978;2022-08-03T00:35:46;32.07;30.91;33.78;;
67294;Laerm;58160;51.434;5.978;2022-08-03T00:35:57;32.07;30.53;37.11;;
67294;Laerm;58160;51.434;5.978;2022-08-03T00:36:07;32.00;30.46;33.77;;
67294;Laerm;58160;51.434;5.978;2022-08-03T00:36:17;32.16;30.94;33.79;;
67294;Laerm;58160;51.434;5.978;2022-08-03T00:36:27;32.24;30.84;33.61;;
67294;Laerm;58160;51.434;5.978;2022-08-03T00:36:38;32.20;31.07;35.04;;
67294;Laerm;58160;51.434;5.978;2022-08-03T00:36:48;32.15;30.78;33.78;;
67294;Laerm;58160;51.434;5.978;2022-08-03T00:36:59;32.24;30.91;33.43;;
67294;Laerm;58160;51.434;5.978;2022-08-03T00:37:09;33.27;30.86;45.89;;
67294;Laerm;58160;51.434;5.978;2022-08-03T00:37:19;32.44;30.73;43.52;;
67294;Laerm;58160;51.434;5.978;2022-08-03T00:37:29;32.11;30.38;42.78;;
67294;Laerm;58160;51.434;5.978;2022-08-03T00:37:40;31.91;30.49;40.35;;
67294;Laerm;58160;51.434;5.978;2022-08-03T00:37:50;31.92;30.49;38.70;;
67294;Laerm;58160;51.434;5.978;2022-08-03T00:38:00;31.83;30.41;33.74;;
67294;Laerm;58160;51.434;5.978;2022-08-03T00:38:10;31.81;30.12;33.21;;
67294;Laerm;58160;51.434;5.978;2022-08-03T00:38:21;31.71;30.44;33.53;;
67294;Laerm;58160;51.434;5.978;2022-08-03T00:38:31;31.83;30.03;35.12;;
67294;Laerm;58160;51.434;5.978;2022-08-03T00:38:41;31.84;30.50;34.20;;
67294;Laerm;58160;51.434;5.978;2022-08-03T00:38:52;31.77;30.37;37.48;;
67294;Laerm;58160;51.434;5.978;2022-08-03T00:39:02;31.88;30.18;33.83;;
67294;Laerm;58160;51.434;5.978;2022-08-03T00:39:12;32.00;30.82;34.16;;
67294;Laerm;58160;51.434;5.978;2022-08-03T00:39:22;32.11;30.71;34.32;;
67294;Laerm;58160;51.434;5.978;2022-08-03T00:39:33;32.29;30.87;36.54;;
67294;Laerm;58160;51.434;5.978;2022-08-03T00:39:43;32.22;30.75;35.12;;
67294;Laerm;58160;51.434;5.978;2022-08-03T00:39:56;31.94;30.31;33.88;;
67294;Laerm;58160;51.434;5.978;2022-08-03T00:40:06;31.83;30.35;34.30;;
67294;Laerm;58160;51.434;5.978;2022-08-03T00:40:17;32.14;30.45;34.83;;
67294;Laerm;58160;51.434;5.978;2022-08-03T00:40:28;32.33;30.80;34.62;;
67294;Laerm;58160;51.434;5.978;2022-08-03T00:40:38;32.59;30.65;37.64;;
67294;Laerm;58160;51.434;5.978;2022-08-03T00:40:48;32.45;30.47;41.54;;
67294;Laerm;58160;51.434;5.978;2022-08-03T00:40:59;32.06;30.76;35.76;;
67294;Laerm;58160;51.434;5.978;2022-08-03T00:41:09;32.21;30.74;34.45;;
67294;Laerm;58160;51.434;5.978;2022-08-03T00:41:19;32.03;30.78;33.99;;
67294;Laerm;58160;51.434;5.978;2022-08-03T00:41:30;31.89;30.64;34.23;;
67294;Laerm;58160;51.434;5.978;2022-08-03T00:41:40;32.02;30.86;33.50;;
67294;Laerm;58160;51.434;5.978;2022-08-03T00:41:50;31.99;30.73;34.90;;
67294;Laerm;58160;51.434;5.978;2022-08-03T00:42:01;32.13;30.44;36.07;;
67294;Laerm;58160;51.434;5.978;2022-08-03T00:42:12;32.48;31.02;36.02;;
67294;Laerm;58160;51.434;5.978;2022-08-03T00:42:22;32.53;30.87;43.21;;
67294;Laerm;58160;51.434;5.978;2022-08-03T00:42:32;33.06;31.45;36.95;;
67294;Laerm;58160;51.434;5.978;2022-08-03T00:42:52;33.61;31.92;36.43;;
67294;Laerm;58160;51.434;5.978;2022-08-03T00:43:03;33.23;31.28;36.21;;
67294;Laerm;58160;51.434;5.978;2022-08-03T00:43:14;32.97;30.95;41.75;;
67294;Laerm;58160;51.434;5.978;2022-08-03T00:43:25;33.26;31.19;37.19;;
67294;Laerm;58160;51.434;5.978;2022-08-03T00:43:36;33.33;31.64;36.40;;
67294;Laerm;58160;51.434;5.978;2022-08-03T00:43:46;32.98;31.26;35.57;;
67294;Laerm;58160;51.434;5.978;2022-08-03T00:43:56;32.80;30.99;36.10;;
67294;Laerm;58160;51.434;5.978;2022-08-03T00:44:07;32.82;31.21;37.60;;
67294;Laerm;58160;51.434;5.978;2022-08-03T00:44:17;33.61;31.32;44.23;;
67294;Laerm;58160;51.434;5.978;2022-08-03T00:44:27;33.09;30.98;41.61;;
67294;Laerm;58160;51.434;5.978;2022-08-03T00:44:38;32.32;30.80;34.14;;
67294;Laerm;58160;51.434;5.978;2022-08-03T00:44:48;32.36;31.32;34.31;;
67294;Laerm;58160;51.434;5.978;2022-08-03T00:44:59;32.86;31.16;35.47;;
67294;Laerm;58160;51.434;5.978;2022-08-03T00:45:09;33.08;31.71;34.61;;
67294;Laerm;58160;51.434;5.978;2022-08-03T00:45:20;32.77;31.28;34.27;;
67294;Laerm;58160;51.434;5.978;2022-08-03T00:45:31;32.30;31.19;34.88;;
67294;Laerm;58160;51.434;5.978;2022-08-03T00:45:42;32.26;30.79;34.30;;
67294;Laerm;58160;51.434;5.978;2022-08-03T00:45:52;32.44;30.70;37.05;;
67294;Laerm;58160;51.434;5.978;2022-08-03T00:46:03;32.62;30.65;35.09;;
67294;Laerm;58160;51.434;5.978;2022-08-03T00:46:14;32.91;31.15;35.87;;
67294;Laerm;58160;51.434;5.978;2022-08-03T00:46:24;32.86;31.28;34.73;;
67294;Laerm;58160;51.434;5.978;2022-08-03T00:46:34;33.41;31.48;35.95;;
67294;Laerm;58160;51.434;5.978;2022-08-03T00:46:45;33.16;31.74;34.94;;
67294;Laerm;58160;51.434;5.978;2022-08-03T00:46:55;33.87;32.21;43.23;;
67294;Laerm;58160;51.434;5.978;2022-08-03T00:47:05;35.36;32.17;41.15;;
67294;Laerm;58160;51.434;5.978;2022-08-03T00:47:16;47.40;36.80;54.14;;
67294;Laerm;58160;51.434;5.978;2022-08-03T00:47:26;34.46;32.25;38.78;;
67294;Laerm;58160;51.434;5.978;2022-08-03T00:47:36;35.11;32.49;37.65;;
67294;Laerm;58160;51.434;5.978;2022-08-03T00:47:47;34.76;32.54;37.78;;
67294;Laerm;58160;51.434;5.978;2022-08-03T00:47:57;35.71;32.79;45.50;;
67294;Laerm;58160;51.434;5.978;2022-08-03T00:48:09;35.22;32.48;41.76;;
67294;Laerm;58160;51.434;5.978;2022-08-03T00:48:19;32.75;31.15;35.13;;
67294;Laerm;58160;51.434;5.978;2022-08-03T00:48:29;32.42;31.18;33.58;;
67294;Laerm;58160;51.434;5.978;2022-08-03T00:48:40;32.40;31.28;33.68;;
67294;Laerm;58160;51.434;5.978;2022-08-03T00:48:50;32.32;30.95;34.44;;
67294;Laerm;58160;51.434;5.978;2022-08-03T00:49:00;32.41;30.69;39.51;;
67294;Laerm;58160;51.434;5.978;2022-08-03T00:49:11;32.66;30.93;43.73;;
67294;Laerm;58160;51.434;5.978;2022-08-03T00:49:21;32.01;30.82;33.18;;
67294;Laerm;58160;51.434;5.978;2022-08-03T00:49:32;32.11;30.75;33.64;;
67294;Laerm;58160;51.434;5.978;2022-08-03T00:49:42;32.31;30.90;34.36;;
67294;Laerm;58160;51.434;5.978;2022-08-03T00:49:52;32.53;30.84;38.75;;
67294;Laerm;58160;51.434;5.978;2022-08-03T00:50:03;33.29;31.28;43.94;;
67294;Laerm;58160;51.434;5.978;2022-08-03T00:50:14;33.14;31.20;35.14;;
67294;Laerm;58160;51.434;5.978;2022-08-03T00:50:25;33.10;31.73;35.01;;
67294;Laerm;58160;51.434;5.978;2022-08-03T00:50:39;33.43;31.66;35.47;;
67294;Laerm;58160;51.434;5.978;2022-08-03T00:50:50;33.49;31.45;39.26;;
67294;Laerm;58160;51.434;5.978;2022-08-03T00:51:00;33.37;31.20;36.57;;
67294;Laerm;58160;51.434;5.978;2022-08-03T00:51:11;33.82;31.33;43.72;;
67294;Laerm;58160;51.434;5.978;2022-08-03T00:51:21;33.25;31.56;35.29;;
67294;Laerm;58160;51.434;5.978;2022-08-03T00:51:32;32.99;31.30;35.57;;
67294;Laerm;58160;51.434;5.978;2022-08-03T00:51:42;32.62;30.97;34.37;;
67294;Laerm;58160;51.434;5.978;2022-08-03T00:51:53;32.43;30.87;41.49;;
67294;Laerm;58160;51.434;5.978;2022-08-03T00:52:03;32.74;30.79;37.54;;
67294;Laerm;58160;51.434;5.978;2022-08-03T00:52:14;32.68;30.90;40.45;;
67294;Laerm;58160;51.434;5.978;2022-08-03T00:52:26;33.30;31.31;45.50;;
67294;Laerm;58160;51.434;5.978;2022-08-03T00:52:36;32.81;31.20;45.88;;
67294;Laerm;58160;51.434;5.978;2022-08-03T00:52:46;32.64;31.34;34.51;;
67294;Laerm;58160;51.434;5.978;2022-08-03T00:52:57;32.85;31.15;43.05;;
67294;Laerm;58160;51.434;5.978;2022-08-03T00:53:09;33.39;31.72;35.38;;
67294;Laerm;58160;51.434;5.978;2022-08-03T00:53:21;34.93;32.94;36.61;;
67294;Laerm;58160;51.434;5.978;2022-08-03T00:53:31;34.69;32.53;38.30;;
67294;Laerm;58160;51.434;5.978;2022-08-03T00:53:43;36.01;33.48;39.33;;
67294;Laerm;58160;51.434;5.978;2022-08-03T00:53:54;38.69;34.98;42.45;;
67294;Laerm;58160;51.434;5.978;2022-08-03T00:54:05;46.59;40.60;51.45;;
67294;Laerm;58160;51.434;5.978;2022-08-03T00:54:15;52.14;48.78;55.53;;
67294;Laerm;58160;51.434;5.978;2022-08-03T00:54:25;51.11;48.56;55.17;;
67294;Laerm;58160;51.434;5.978;2022-08-03T00:54:37;48.87;44.33;52.63;;
67294;Laerm;58160;51.434;5.978;2022-08-03T00:54:47;44.03;37.24;48.44;;
67294;Laerm;58160;51.434;5.978;2022-08-03T00:54:58;36.65;33.43;39.93;;
67294;Laerm;58160;51.434;5.978;2022-08-03T00:55:10;34.24;32.06;37.65;;
67294;Laerm;58160;51.434;5.978;2022-08-03T00:55:20;34.06;32.18;37.58;;
67294;Laerm;58160;51.434;5.978;2022-08-03T00:55:31;34.36;31.86;40.02;;
67294;Laerm;58160;51.434;5.978;2022-08-03T00:55:41;33.16;31.52;36.42;;
67294;Laerm;58160;51.434;5.978;2022-08-03T00:55:52;32.83;30.86;40.09;;
67294;Laerm;58160;51.434;5.978;2022-08-03T00:56:03;32.46;30.52;37.96;;
67294;Laerm;58160;51.434;5.978;2022-08-03T00:56:14;32.77;30.59;44.06;;
67294;Laerm;58160;51.434;5.978;2022-08-03T00:56:24;32.01;30.26;38.40;;
67294;Laerm;58160;51.434;5.978;2022-08-03T00:56:35;32.80;30.55;44.03;;
67294;Laerm;58160;51.434;5.978;2022-08-03T00:56:46;33.09;31.04;40.20;;
67294;Laerm;58160;51.434;5.978;2022-08-03T00:56:57;33.87;32.02;42.29;;
67294;Laerm;58160;51.434;5.978;2022-08-03T00:57:07;33.41;31.13;35.92;;
67294;Laerm;58160;51.434;5.978;2022-08-03T00:57:17;32.26;30.84;34.56;;
67294;Laerm;58160;51.434;5.978;2022-08-03T00:57:28;32.16;30.64;34.92;;
67294;Laerm;58160;51.434;5.978;2022-08-03T00:57:39;32.38;30.91;36.13;;
67294;Laerm;58160;51.434;5.978;2022-08-03T00:57:51;32.73;30.97;39.80;;
67294;Laerm;58160;51.434;5.978;2022-08-03T00:58:02;33.90;31.08;50.07;;
67294;Laerm;58160;51.434;5.978;2022-08-03T00:58:15;33.66;31.52;47.16;;
67294;Laerm;58160;51.434;5.978;2022-08-03T00:58:25;32.64;31.03;39.15;;
67294;Laerm;58160;51.434;5.978;2022-08-03T00:58:36;33.42;31.32;35.96;;
67294;Laerm;58160;51.434;5.978;2022-08-03T00:58:46;42.20;34.01;49.44;;
67294;Laerm;58160;51.434;5.978;2022-08-03T00:58:56;51.37;36.71;58.39;;